This is the latest recevied weather packets stored in our database for station/object KK7MLS-13. If no packets are shown the sender has not sent any weather packets the latest 10 day(s).
| Time | Temp. | Humidity | Pressure | Rain* | Wind** | Luminosity | Snow |
|---|---|---|---|---|---|---|---|
| 1777214168 | 6.11° C | 79% | 1009.7 hPa | 0 mm | - | 26 W/m² | - |
| 1777213862 | 6.11° C | 78% | 1009.5 hPa | 0 mm | - | 24 W/m² | - |
| 1777213557 | 6.11° C | 79% | 1009.5 hPa | 0 mm | - | 23 W/m² | - |
| 1777213255 | 6.11° C | 78% | 1009.5 hPa | 0 mm | - | 22 W/m² | - |
| 1777212950 | 6.11° C | 78% | 1009.5 hPa | 0 mm | - | 21 W/m² | - |
| 1777212649 | 5.56° C | 79% | 1009.3 hPa | 0 mm | - | 20 W/m² | - |
| 1777212347 | 5.56° C | 79% | 1009.2 hPa | 0 mm | - | 18 W/m² | - |
| 1777212043 | 5.56° C | 79% | 1009.3 hPa | 0 mm | - | 17 W/m² | - |
| 1777211739 | 5.56° C | 78% | 1009.2 hPa | 0 mm | - | 16 W/m² | - |
| 1777211438 | 5.56° C | 79% | 1009.2 hPa | 0 mm | - | 14 W/m² | - |
| 1777211134 | 6.11° C | 78% | 1009.1 hPa | 0 mm | - | 13 W/m² | - |
| 1777210831 | 6.11° C | 77% | 1008.9 hPa | 0 mm | - | 12 W/m² | - |
| 1777210529 | 6.11° C | 77% | 1009.1 hPa | 0 mm | - | 10 W/m² | - |
| 1777210227 | 6.67° C | 75% | 1009 hPa | 0 mm | - | 9 W/m² | - |
| 1777209922 | 6.67° C | 75% | 1008.9 hPa | 0 mm | - | 7 W/m² | - |
| 1777209618 | 7.22° C | 72% | 1008.9 hPa | 0 mm | - | 5 W/m² | - |
| 1777209314 | 7.22° C | 71% | 1008.9 hPa | 0 mm | - | 4 W/m² | - |
| 1777209011 | 7.78° C | 69% | 1008.7 hPa | 0 mm | - | 2 W/m² | - |
| 1777208707 | 7.78° C | 70% | 1008.7 hPa | 0 mm | - | 1 W/m² | - |
| 1777208403 | 7.22° C | 70% | 1008.6 hPa | 0 mm | - | 1 W/m² | - |
| 1777208100 | 7.22° C | 73% | 1008.4 hPa | 0 mm | - | 0 W/m² | - |
| 1777207795 | 6.67° C | 74% | 1008.6 hPa | 0 mm | - | 0 W/m² | - |
| 1777207495 | 6.67° C | 75% | 1008.5 hPa | 0 mm | - | 0 W/m² | - |
| 1777207195 | 6.67° C | 75% | 1008.5 hPa | 0 mm | - | 0 W/m² | - |
| 1777206891 | 6.67° C | 74% | 1008.4 hPa | 0 mm | - | 0 W/m² | - |
* Rain latest hour (hover to see other rain measurements)
** Current wind speed in m/s (hover to see current wind gust speed)